Time;durP1;ratioP1;P1;durP2;ratioP2;P2;SDS_P1;SDS_P2;PMS_P1;PMS_P2;Temp;Humidity;BMP_temperature;BMP_pressure;BME280_temperature;BME280_humidity;BME280_pressure;Samples;Min_cycle;Max_cycle;Signal;HPM_P1;HPM_P2
2022/04/22 00:01:04;;;;;;;;;16.75;16.00;;;;;;;;5056641;28;45524;-67
2022/04/22 00:03:30;;;;;;;;;14.75;14.50;;;;;;;;5056615;28;45251;-66
2022/04/22 00:05:55;;;;;;;;;32.75;31.50;;;;;;;;5056986;28;45491;-66
2022/04/22 00:08:22;;;;;;;;;13.75;13.75;;;;;;;;5056822;28;45323;-67
2022/04/22 00:13:32;;;;;;;;;16.00;15.00;;;;;;;;5056395;28;45234;-67
2022/04/22 00:15:57;;;;;;;;;18.00;17.75;;;;;;;;5057055;28;45291;-66
2022/04/22 00:18:23;;;;;;;;;18.75;18.00;;;;;;;;5055853;28;45301;-66
2022/04/22 00:20:48;;;;;;;;;23.50;19.00;;;;;;;;5056372;28;45354;-69
2022/04/22 00:23:14;;;;;;;;;23.25;20.00;;;;;;;;5056459;28;45247;-67
2022/04/22 00:25:39;;;;;;;;;29.25;24.75;;;;;;;;5056559;28;45326;-69
2022/04/22 00:28:05;;;;;;;;;26.50;25.00;;;;;;;;5056487;28;45471;-69
2022/04/22 00:30:31;;;;;;;;;24.25;22.00;;;;;;;;5056000;28;46543;-69
2022/04/22 00:32:56;;;;;;;;;25.00;22.00;;;;;;;;5056525;28;45748;-67
2022/04/22 00:35:21;;;;;;;;;19.75;17.50;;;;;;;;5056225;28;45435;-68
2022/04/22 00:37:47;;;;;;;;;20.25;16.75;;;;;;;;5056535;28;45424;-69
2022/04/22 00:40:12;;;;;;;;;22.25;20.00;;;;;;;;5058975;28;45990;-69
2022/04/22 00:42:39;;;;;;;;;17.75;15.75;;;;;;;;5059611;28;45401;-66
2022/04/22 00:45:05;;;;;;;;;19.00;16.25;;;;;;;;5059687;28;45398;-67
2022/04/22 00:47:30;;;;;;;;;18.00;16.00;;;;;;;;5059589;28;45334;-68
2022/04/22 00:49:56;;;;;;;;;18.75;16.00;;;;;;;;5059616;28;45403;-69
2022/04/22 00:52:21;;;;;;;;;14.50;12.00;;;;;;;;5059259;28;45413;-69
2022/04/22 00:54:47;;;;;;;;;13.50;12.50;;;;;;;;5059551;28;45544;-66
2022/04/22 00:57:13;;;;;;;;;21.75;17.50;;;;;;;;5059663;28;45392;-67
2022/04/22 00:59:39;;;;;;;;;18.75;18.25;;;;;;;;5059297;28;45395;-69
2022/04/22 01:02:04;;;;;;;;;23.50;19.25;;;;;;;;5059311;28;45399;-69
2022/04/22 01:09:57;;;;;;;;;14.25;12.00;;;;;;;;5059417;28;45819;-69
2022/04/22 01:12:22;;;;;;;;;13.00;12.00;;;;;;;;5059102;28;45287;-67
2022/04/22 01:14:48;;;;;;;;;12.00;12.00;;;;;;;;5059351;28;45287;-70
2022/04/22 01:17:13;;;;;;;;;8.00;7.00;;;;;;;;5059414;28;45350;-69
2022/04/22 01:19:39;;;;;;;;;8.75;8.25;;;;;;;;5058968;28;45999;-67
2022/04/22 01:22:05;;;;;;;;;8.75;7.75;;;;;;;;5059095;28;45343;-67
2022/04/22 01:24:31;;;;;;;;;8.50;7.00;;;;;;;;5059532;28;45169;-66
2022/04/22 01:26:57;;;;;;;;;9.50;8.75;;;;;;;;5058936;28;45358;-68
2022/04/22 01:29:22;;;;;;;;;4.00;4.00;;;;;;;;5058630;28;46034;-69
2022/04/22 01:31:48;;;;;;;;;8.75;8.00;;;;;;;;5058581;28;45156;-67
2022/04/22 01:34:13;;;;;;;;;8.25;7.00;;;;;;;;5059010;28;45292;-69
2022/04/22 01:36:39;;;;;;;;;7.25;6.75;;;;;;;;5059135;28;45505;-67
2022/04/22 01:39:04;;;;;;;;;8.00;7.25;;;;;;;;5058657;28;45667;-67
2022/04/22 01:41:30;;;;;;;;;10.75;6.00;;;;;;;;5058790;28;45455;-66
2022/04/22 01:43:56;;;;;;;;;9.75;9.00;;;;;;;;5058743;28;45725;-66
2022/04/22 01:46:22;;;;;;;;;9.00;8.00;;;;;;;;5058765;28;45522;-66
2022/04/22 01:48:47;;;;;;;;;8.50;8.00;;;;;;;;5057164;28;46346;-66
2022/04/22 01:51:12;;;;;;;;;7.25;6.25;;;;;;;;5057454;28;45459;-67
2022/04/22 01:53:38;;;;;;;;;9.00;9.00;;;;;;;;5058877;28;45434;-67
2022/04/22 01:56:04;;;;;;;;;9.00;8.75;;;;;;;;5058735;28;45353;-67
2022/04/22 01:58:30;;;;;;;;;9.25;8.00;;;;;;;;5058729;28;47725;-66
2022/04/22 02:00:55;;;;;;;;;9.75;9.00;;;;;;;;5058221;28;45504;-66
2022/04/22 02:03:20;;;;;;;;;8.00;8.00;;;;;;;;5058595;28;45227;-67
2022/04/22 02:05:46;;;;;;;;;8.25;8.00;;;;;;;;5057410;28;45341;-66
2022/04/22 02:08:13;;;;;;;;;10.25;8.00;;;;;;;;5058261;28;46063;-67
2022/04/22 02:10:40;;;;;;;;;10.25;7.00;;;;;;;;5058382;28;45512;-66
2022/04/22 02:13:07;;;;;;;;;8.00;6.50;;;;;;;;5056979;28;45360;-69
2022/04/22 02:15:32;;;;;;;;;7.00;7.00;;;;;;;;5058608;28;45474;-66
2022/04/22 02:17:57;;;;;;;;;4.00;4.00;;;;;;;;5058023;28;46021;-66
2022/04/22 02:20:23;;;;;;;;;6.75;6.00;;;;;;;;5056743;28;45334;-66
2022/04/22 02:22:48;;;;;;;;;5.75;5.75;;;;;;;;5058357;28;45484;-66
2022/04/22 02:25:13;;;;;;;;;6.50;6.00;;;;;;;;5058569;28;45420;-66
2022/04/22 02:30:23;;;;;;;;;6.00;6.00;;;;;;;;5057863;28;45320;-66
2022/04/22 02:32:48;;;;;;;;;4.50;4.50;;;;;;;;5058050;28;45260;-66
2022/04/22 02:35:14;;;;;;;;;5.75;4.00;;;;;;;;5056823;28;45312;-66
2022/04/22 02:37:39;;;;;;;;;7.00;4.50;;;;;;;;5057723;28;46052;-67
2022/04/22 02:40:05;;;;;;;;;3.50;3.50;;;;;;;;5057970;28;45454;-67
2022/04/22 02:45:29;;;;;;;;;3.50;3.00;;;;;;;;5058060;28;45318;-66
2022/04/22 02:47:56;;;;;;;;;4.00;3.25;;;;;;;;5057638;28;46203;-66
2022/04/22 02:50:22;;;;;;;;;4.00;4.00;;;;;;;;5057846;28;45402;-66
2022/04/22 02:52:47;;;;;;;;;2.25;2.25;;;;;;;;5057601;28;45414;-66
2022/04/22 02:55:12;;;;;;;;;2.25;2.25;;;;;;;;5057987;28;45492;-67
2022/04/22 02:57:38;;;;;;;;;4.25;4.00;;;;;;;;5057517;28;45956;-69
2022/04/22 03:00:04;;;;;;;;;3.50;3.50;;;;;;;;5057813;28;45555;-66
2022/04/22 03:02:29;;;;;;;;;4.00;4.00;;;;;;;;5057279;28;45311;-66
2022/04/22 03:04:54;;;;;;;;;3.50;3.50;;;;;;;;5057818;28;45444;-66
2022/04/22 03:07:20;;;;;;;;;2.75;2.75;;;;;;;;5055987;28;45465;-66
2022/04/22 03:09:45;;;;;;;;;2.75;2.00;;;;;;;;5056066;28;45473;-69
2022/04/22 03:12:13;;;;;;;;;4.00;2.00;;;;;;;;5056155;28;45165;-67
2022/04/22 03:14:38;;;;;;;;;3.00;3.00;;;;;;;;5057738;28;45528;-67
2022/04/22 03:17:04;;;;;;;;;1.50;1.50;;;;;;;;5057552;28;45500;-66
2022/04/22 03:19:29;;;;;;;;;2.00;2.00;;;;;;;;5057309;28;45494;-66
2022/04/22 03:21:54;;;;;;;;;2.00;2.00;;;;;;;;5056169;28;45585;-66
2022/04/22 03:24:20;;;;;;;;;3.00;1.75;;;;;;;;5057485;28;45365;-67
2022/04/22 03:26:45;;;;;;;;;3.00;2.75;;;;;;;;5057003;28;45935;-67
2022/04/22 03:29:10;;;;;;;;;2.00;2.00;;;;;;;;5057160;28;45465;-67
2022/04/22 03:31:36;;;;;;;;;3.00;2.00;;;;;;;;5056166;28;45514;-67
2022/04/22 03:34:01;;;;;;;;;3.00;2.00;;;;;;;;5057454;28;45287;-66
2022/04/22 03:36:26;;;;;;;;;2.25;2.25;;;;;;;;5055605;28;45560;-68
2022/04/22 03:38:52;;;;;;;;;3.25;2.75;;;;;;;;5056846;28;45186;-68
2022/04/22 03:41:17;;;;;;;;;36.00;30.75;;;;;;;;5057011;28;45459;-68
2022/04/22 03:43:43;;;;;;;;;3.50;3.00;;;;;;;;5057360;28;45317;-68
2022/04/22 03:46:08;;;;;;;;;3.25;2.75;;;;;;;;5057091;28;45405;-69
2022/04/22 03:48:34;;;;;;;;;2.25;2.00;;;;;;;;5056815;28;45471;-69
2022/04/22 03:50:59;;;;;;;;;2.00;2.00;;;;;;;;5055714;28;45457;-69
2022/04/22 03:53:24;;;;;;;;;2.75;2.50;;;;;;;;5057220;28;45235;-70
2022/04/22 03:55:50;;;;;;;;;3.75;2.00;;;;;;;;5056838;28;45471;-68
2022/04/22 03:58:17;;;;;;;;;1.75;1.75;;;;;;;;5057068;28;45326;-69
2022/04/22 04:00:46;;;;;;;;;2.00;2.00;;;;;;;;5056880;28;45512;-69
2022/04/22 04:03:13;;;;;;;;;3.50;2.25;;;;;;;;5055520;28;45509;-68
2022/04/22 04:05:38;;;;;;;;;2.00;2.00;;;;;;;;5056752;28;45310;-66
2022/04/22 04:08:05;;;;;;;;;1.00;1.00;;;;;;;;5056493;28;45567;-66
2022/04/22 04:15:58;;;;;;;;;2.00;2.00;;;;;;;;5059943;28;45476;-66
2022/04/22 04:18:31;;;;;;;;;2.25;2.00;;;;;;;;5060015;28;45318;-66
2022/04/22 04:23:41;;;;;;;;;13.75;13.75;;;;;;;;5060518;28;45465;-67
2022/04/22 04:26:07;;;;;;;;;5.00;5.00;;;;;;;;5059752;28;45955;-66
2022/04/22 04:28:33;;;;;;;;;2.25;2.25;;;;;;;;5060099;28;45442;-66
2022/04/22 04:30:59;;;;;;;;;6.00;5.50;;;;;;;;5059776;28;45484;-66
2022/04/22 04:33:24;;;;;;;;;2.00;1.25;;;;;;;;5060031;28;45335;-69
2022/04/22 04:35:50;;;;;;;;;13.00;13.00;;;;;;;;5058428;28;46693;-66
2022/04/22 04:38:16;;;;;;;;;4.00;4.00;;;;;;;;5059766;28;45397;-67
2022/04/22 04:40:41;;;;;;;;;14.25;14.00;;;;;;;;5060045;28;45307;-66
2022/04/22 04:43:07;;;;;;;;;4.00;3.75;;;;;;;;5059821;28;45410;-66
2022/04/22 04:45:33;;;;;;;;;3.75;3.75;;;;;;;;5059451;28;46522;-70
2022/04/22 04:47:58;;;;;;;;;4.50;3.25;;;;;;;;5059688;28;45334;-69
2022/04/22 04:50:24;;;;;;;;;4.00;4.00;;;;;;;;5059714;28;45334;-69
2022/04/22 04:52:49;;;;;;;;;3.00;3.00;;;;;;;;5060055;28;45328;-67
2022/04/22 04:55:15;;;;;;;;;2.50;2.50;;;;;;;;5059646;28;46192;-67
2022/04/22 04:57:41;;;;;;;;;1.25;1.25;;;;;;;;5058426;28;45362;-66
2022/04/22 05:00:08;;;;;;;;;2.00;2.00;;;;;;;;5059440;28;45500;-67
2022/04/22 05:02:33;;;;;;;;;2.00;1.00;;;;;;;;5059595;28;45633;-66
2022/04/22 05:04:59;;;;;;;;;3.00;1.75;;;;;;;;5059460;28;45945;-67
2022/04/22 05:07:24;;;;;;;;;1.50;1.50;;;;;;;;5057957;28;45616;-69
2022/04/22 05:09:49;;;;;;;;;2.75;2.50;;;;;;;;5059312;28;45501;-67
2022/04/22 05:12:15;;;;;;;;;6.00;6.00;;;;;;;;5059511;28;45284;-69
2022/04/22 05:14:40;;;;;;;;;3.00;3.00;;;;;;;;5059320;28;45370;-67
2022/04/22 05:17:06;;;;;;;;;3.75;3.50;;;;;;;;5059259;28;45537;-66
2022/04/22 05:19:31;;;;;;;;;25.75;22.00;;;;;;;;5059098;28;45399;-66
2022/04/22 05:21:56;;;;;;;;;3.00;2.50;;;;;;;;5059361;28;45348;-69
2022/04/22 05:24:22;;;;;;;;;16.00;14.00;;;;;;;;5058405;28;45410;-67
2022/04/22 05:26:47;;;;;;;;;4.00;3.50;;;;;;;;5059016;28;45340;-67
2022/04/22 05:34:40;;;;;;;;;2.25;2.25;;;;;;;;5058597;28;45219;-66
2022/04/22 05:37:06;;;;;;;;;3.00;2.25;;;;;;;;5058759;28;45978;-70
2022/04/22 05:39:31;;;;;;;;;1.00;1.00;;;;;;;;5058684;28;45552;-70
2022/04/22 05:41:58;;;;;;;;;2.00;2.00;;;;;;;;5059069;28;45304;-70
2022/04/22 05:44:24;;;;;;;;;3.50;3.00;;;;;;;;5058748;28;45365;-70
2022/04/22 05:46:49;;;;;;;;;11.25;11.00;;;;;;;;5058571;28;45239;-69
2022/04/22 05:49:15;;;;;;;;;1.75;1.75;;;;;;;;5059103;28;45353;-70
2022/04/22 05:51:40;;;;;;;;;3.00;3.00;;;;;;;;5058943;28;45376;-69
2022/04/22 05:54:06;;;;;;;;;3.00;2.00;;;;;;;;5058452;28;46553;-69
2022/04/22 05:56:31;;;;;;;;;3.00;3.00;;;;;;;;5058438;28;45373;-70
2022/04/22 05:58:57;;;;;;;;;3.00;3.00;;;;;;;;5058952;28;45446;-70
2022/04/22 06:01:22;;;;;;;;;9.75;9.25;;;;;;;;5058972;28;45353;-69
2022/04/22 06:03:48;;;;;;;;;4.00;4.00;;;;;;;;5058396;28;45437;-68
2022/04/22 06:06:13;;;;;;;;;2.75;2.75;;;;;;;;5059009;28;45239;-67
2022/04/22 06:11:22;;;;;;;;;2.75;2.75;;;;;;;;5058490;28;45322;-69
2022/04/22 06:13:47;;;;;;;;;6.00;6.00;;;;;;;;5058181;28;45946;-70
2022/04/22 06:16:13;;;;;;;;;9.00;6.00;;;;;;;;5056764;28;45302;-68
2022/04/22 06:18:39;;;;;;;;;8.75;7.25;;;;;;;;5058239;28;45406;-69
2022/04/22 06:21:04;;;;;;;;;8.50;8.50;;;;;;;;5058270;28;45457;-70
2022/04/22 06:23:29;;;;;;;;;9.75;9.00;;;;;;;;5056560;28;45468;-67
2022/04/22 06:25:55;;;;;;;;;13.75;12.75;;;;;;;;5056622;28;45397;-67
2022/04/22 06:28:20;;;;;;;;;20.00;18.00;;;;;;;;5058121;28;45156;-67
2022/04/22 06:30:46;;;;;;;;;21.25;20.25;;;;;;;;5058401;28;45200;-67
2022/04/22 06:33:12;;;;;;;;;56.75;46.75;;;;;;;;5057803;28;46524;-66
2022/04/22 06:35:38;;;;;;;;;32.50;31.25;;;;;;;;5057719;28;45326;-66
2022/04/22 06:38:05;;;;;;;;;28.50;26.75;;;;;;;;5055777;28;45248;-70
2022/04/22 06:45:59;;;;;;;;;22.50;21.25;;;;;;;;5057728;28;45334;-67
2022/04/22 06:48:30;;;;;;;;;20.00;19.33;;;;;;;;5057563;28;45428;-69
2022/04/22 06:50:56;;;;;;;;;19.67;18.33;;;;;;;;5057798;28;45397;-70
2022/04/22 06:53:22;;;;;;;;;15.67;15.33;;;;;;;;5056065;28;45411;-67
2022/04/22 06:55:48;;;;;;;;;11.33;11.33;;;;;;;;5057767;28;45185;-68
2022/04/22 06:58:14;;;;;;;;;10.00;9.00;;;;;;;;5057526;28;45284;-70
2022/04/22 07:00:40;;;;;;;;;13.33;13.33;;;;;;;;5056547;28;45445;-70
2022/04/22 07:03:06;;;;;;;;;8.67;8.67;;;;;;;;5057075;28;45575;-67
2022/04/22 07:05:33;;;;;;;;;4.00;4.00;;;;;;;;5057407;28;45268;-67
2022/04/22 07:07:59;;;;;;;;;8.00;8.00;;;;;;;;5057539;28;45452;-67
2022/04/22 07:10:25;;;;;;;;;6.00;5.33;;;;;;;;5057537;28;45473;-70
2022/04/22 07:12:51;;;;;;;;;10.00;10.00;;;;;;;;5057150;28;45346;-67
2022/04/22 07:15:16;;;;;;;;;5.67;5.67;;;;;;;;5056951;28;45463;-69
2022/04/22 07:17:42;;;;;;;;;6.00;6.00;;;;;;;;5056962;28;45414;-70
2022/04/22 07:20:09;;;;;;;;;8.33;8.33;;;;;;;;5057422;28;45459;-70
2022/04/22 07:22:38;;;;;;;;;5.00;5.00;;;;;;;;5057136;28;45538;-68
2022/04/22 07:25:07;;;;;;;;;4.00;3.67;;;;;;;;5057196;28;45437;-70
2022/04/22 07:27:33;;;;;;;;;3.00;3.00;;;;;;;;5057224;28;45263;-70
2022/04/22 07:29:59;;;;;;;;;6.00;5.00;;;;;;;;5057142;28;45336;-70
2022/04/22 07:32:25;;;;;;;;;3.67;3.67;;;;;;;;5056868;28;46463;-70
2022/04/22 07:34:51;;;;;;;;;6.67;6.33;;;;;;;;5056046;28;45358;-70
2022/04/22 07:37:16;;;;;;;;;6.33;6.00;;;;;;;;5057154;28;45261;-70
2022/04/22 07:39:42;;;;;;;;;9.67;9.67;;;;;;;;5057041;28;45584;-70
2022/04/22 07:42:07;;;;;;;;;6.00;6.00;;;;;;;;5055432;28;45619;-70
2022/04/22 07:47:20;;;;;;;;;1.67;1.67;;;;;;;;5057776;28;45295;-69
2022/04/22 07:49:46;;;;;;;;;1.33;1.00;;;;;;;;5060778;28;45505;-69
2022/04/22 07:52:11;;;;;;;;;1.33;0.67;;;;;;;;5060311;28;46295;-70
2022/04/22 07:54:37;;;;;;;;;11.33;11.33;;;;;;;;5060427;28;45261;-71
2022/04/22 07:57:02;;;;;;;;;4.33;4.33;;;;;;;;5060361;28;45350;-70
2022/04/22 07:59:28;;;;;;;;;2.67;1.67;;;;;;;;5059195;28;45492;-70
2022/04/22 08:01:53;;;;;;;;;1.67;1.67;;;;;;;;5060566;28;45552;-70
2022/04/22 08:04:19;;;;;;;;;4.00;4.00;;;;;;;;5060164;28;45505;-70
2022/04/22 08:06:44;;;;;;;;;3.33;3.33;;;;;;;;5060196;28;45461;-70
2022/04/22 08:09:10;;;;;;;;;3.67;2.67;;;;;;;;5060219;28;45286;-70
2022/04/22 08:11:35;;;;;;;;;0.67;0.67;;;;;;;;5057729;28;46735;-71
2022/04/22 08:14:01;;;;;;;;;2.33;2.33;;;;;;;;5058999;28;45478;-70
2022/04/22 08:16:26;;;;;;;;;28.75;26.75;;;;;;;;5059886;28;45564;-70
2022/04/22 08:18:51;;;;;;;;;1.67;1.00;;;;;;;;5060400;28;45271;-70
2022/04/22 08:21:17;;;;;;;;;33.25;30.50;;;;;;;;5059273;28;46131;-70
2022/04/22 08:23:43;;;;;;;;;2.00;2.00;;;;;;;;5059494;28;45533;-70
2022/04/22 08:26:09;;;;;;;;;2.33;2.33;;;;;;;;5059306;28;45311;-70
2022/04/22 08:28:34;;;;;;;;;1.67;1.67;;;;;;;;5058247;28;45326;-71
2022/04/22 08:31:00;;;;;;;;;4.00;3.67;;;;;;;;5057687;28;45565;-70
2022/04/22 08:33:26;;;;;;;;;3.33;3.33;;;;;;;;5058010;28;45262;-70
2022/04/22 08:35:52;;;;;;;;;4.67;4.33;;;;;;;;5059615;28;45239;-70
2022/04/22 08:38:17;;;;;;;;;1.00;1.00;;;;;;;;5059180;28;45300;-70
2022/04/22 08:40:43;;;;;;;;;1.33;1.33;;;;;;;;5059142;28;45351;-70
2022/04/22 08:43:12;;;;;;;;;3.00;3.00;;;;;;;;5059409;28;45183;-71
2022/04/22 08:45:37;;;;;;;;;1.67;1.67;;;;;;;;5058151;28;45413;-70
2022/04/22 08:50:50;;;;;;;;;2.00;2.00;;;;;;;;5059079;28;45529;-70
2022/04/22 08:53:20;;;;;;;;;4.00;3.67;;;;;;;;5059380;28;45185;-70
2022/04/22 08:55:46;;;;;;;;;2.33;2.33;;;;;;;;5059308;28;45447;-69
2022/04/22 08:58:11;;;;;;;;;2.67;2.67;;;;;;;;5058175;28;45560;-70
2022/04/22 09:00:41;;;;;;;;;2.67;2.33;;;;;;;;5058157;28;46194;-70
2022/04/22 09:03:06;;;;;;;;;2.00;2.00;;;;;;;;5059246;28;45417;-70
2022/04/22 09:05:34;;;;;;;;;2.33;2.33;;;;;;;;5058994;28;45365;-70
2022/04/22 09:08:00;;;;;;;;;1.33;1.00;;;;;;;;5059165;28;45371;-70
2022/04/22 09:10:26;;;;;;;;;1.67;1.67;;;;;;;;5057679;28;45697;-70
2022/04/22 09:12:52;;;;;;;;;0.67;0.67;;;;;;;;5058699;28;45480;-70
2022/04/22 09:15:21;;;;;;;;;3.00;3.00;;;;;;;;5057709;28;45420;-70
2022/04/22 09:17:47;;;;;;;;;1.67;1.67;;;;;;;;5059182;28;45340;-67
2022/04/22 09:20:15;;;;;;;;;0.67;0.67;;;;;;;;5057195;28;45478;-70
2022/04/22 09:22:40;;;;;;;;;0.33;0.33;;;;;;;;5058723;28;45294;-70
2022/04/22 09:25:06;;;;;;;;;4.67;3.67;;;;;;;;5057581;28;45331;-71
2022/04/22 09:27:36;;;;;;;;;0.67;0.67;;;;;;;;5059126;28;45648;-70
2022/04/22 09:30:03;;;;;;;;;2.33;1.67;;;;;;;;5058522;28;45580;-70
2022/04/22 09:32:30;;;;;;;;;1.33;0.33;;;;;;;;5058522;28;45468;-70
2022/04/22 09:34:56;;;;;;;;;0.33;0.33;;;;;;;;5057483;28;45244;-70
2022/04/22 09:42:53;;;;;;;;;0.67;0.67;;;;;;;;5058111;28;45378;-70
2022/04/22 09:45:18;;;;;;;;;0.67;0.67;;;;;;;;5058223;28;45318;-70
2022/04/22 09:47:55;;;;;;;;;1.00;1.00;;;;;;;;5058277;28;45298;-70
2022/04/22 09:50:37;;;;;;;;;1.00;0.67;;;;;;;;5058144;28;45965;-70
2022/04/22 09:53:03;;;;;;;;;0.67;0.67;;;;;;;;5058132;28;45292;-69
2022/04/22 09:55:30;;;;;;;;;0.67;0.67;;;;;;;;5056994;28;45311;-70
2022/04/22 09:57:56;;;;;;;;;0.67;0.67;;;;;;;;5058481;28;45385;-70
2022/04/22 10:00:22;;;;;;;;;0.67;0.67;;;;;;;;5058070;28;45693;-70
2022/04/22 10:02:51;;;;;;;;;0.67;0.67;;;;;;;;5056749;28;45308;-70
2022/04/22 10:05:23;;;;;;;;;1.33;1.33;;;;;;;;5057755;28;45480;-70
2022/04/22 10:07:52;;;;;;;;;0.67;0.67;;;;;;;;5058264;28;45401;-70
2022/04/22 10:10:23;;;;;;;;;0.67;0.67;;;;;;;;5057251;28;46646;-69
2022/04/22 10:12:49;;;;;;;;;1.00;1.00;;;;;;;;5056598;28;45449;-69
2022/04/22 10:15:17;;;;;;;;;1.33;1.00;;;;;;;;5057464;28;45318;-69
2022/04/22 10:17:44;;;;;;;;;0.67;0.67;;;;;;;;5056283;28;45282;-70
2022/04/22 10:20:09;;;;;;;;;0.67;0.67;;;;;;;;5057324;28;46367;-70
2022/04/22 10:22:36;;;;;;;;;0.33;0.33;;;;;;;;5057558;28;45402;-70
2022/04/22 10:25:02;;;;;;;;;1.67;1.33;;;;;;;;5057867;28;45546;-70
2022/04/22 10:27:30;;;;;;;;;1.00;1.00;;;;;;;;5057797;28;45317;-70
2022/04/22 10:29:59;;;;;;;;;1.67;1.67;;;;;;;;5057438;28;46074;-70
2022/04/22 10:32:35;;;;;;;;;0.67;0.67;;;;;;;;5145405;27;45770;-71
2022/04/22 10:35:01;;;;;;;;;2.00;1.67;;;;;;;;5115016;27;45451;-67
2022/04/22 10:37:27;;;;;;;;;5.33;4.67;;;;;;;;5114874;27;45273;-66
2022/04/22 10:39:55;;;;;;;;;0.67;0.67;;;;;;;;5115105;27;45234;-67
2022/04/22 10:42:29;;;;;;;;;1.67;1.33;;;;;;;;5114505;27;46283;-67
2022/04/22 10:47:41;;;;;;;;;2.67;2.67;;;;;;;;5114495;27;45553;-67
2022/04/22 10:50:22;;;;;;;;;9.67;9.67;;;;;;;;5114378;27;45508;-67
2022/04/22 10:53:03;;;;;;;;;1.00;1.00;;;;;;;;5114357;27;45305;-67
2022/04/22 10:55:49;;;;;;;;;1.67;1.67;;;;;;;;5114615;27;45300;-67
2022/04/22 10:58:19;;;;;;;;;1.67;1.33;;;;;;;;5114028;27;45433;-67
2022/04/22 11:00:45;;;;;;;;;1.00;1.00;;;;;;;;5114615;27;45361;-67
2022/04/22 11:03:16;;;;;;;;;1.67;1.67;;;;;;;;5114361;27;46329;-67
2022/04/22 11:05:48;;;;;;;;;2.00;2.00;;;;;;;;5114379;27;45510;-68
2022/04/22 11:08:24;;;;;;;;;1.67;1.67;;;;;;;;5114334;27;45333;-67
2022/04/22 11:10:51;;;;;;;;;2.00;2.00;;;;;;;;5112506;27;45277;-67
2022/04/22 11:13:33;;;;;;;;;2.67;2.67;;;;;;;;5113798;27;46368;-70
2022/04/22 11:16:11;;;;;;;;;2.33;2.33;;;;;;;;5114017;27;45304;-67
2022/04/22 11:18:40;;;;;;;;;2.33;2.33;;;;;;;;5114223;27;45502;-67
2022/04/22 11:21:19;;;;;;;;;2.00;2.00;;;;;;;;5114068;27;45643;-67
2022/04/22 11:23:45;;;;;;;;;2.00;2.00;;;;;;;;5113470;27;45969;-67
2022/04/22 11:26:15;;;;;;;;;2.00;2.00;;;;;;;;5113635;27;45522;-68
2022/04/22 11:28:41;;;;;;;;;3.33;3.00;;;;;;;;5113803;27;45466;-70
2022/04/22 11:31:08;;;;;;;;;2.00;1.00;;;;;;;;5113630;27;45487;-67
2022/04/22 11:33:42;;;;;;;;;1.00;1.00;;;;;;;;5113868;27;45352;-68
2022/04/22 11:36:08;;;;;;;;;3.00;3.00;;;;;;;;5113840;27;45428;-66
2022/04/22 11:38:33;;;;;;;;;1.67;1.67;;;;;;;;5114240;27;45405;-66
2022/04/22 11:40:58;;;;;;;;;3.00;3.00;;;;;;;;5114302;27;45278;-67
2022/04/22 11:43:27;;;;;;;;;1.00;1.00;;;;;;;;5102904;27;45974;-71
2022/04/22 11:45:52;;;;;;;;;3.33;3.00;;;;;;;;5100076;27;45259;-70
2022/04/22 11:48:19;;;;;;;;;2.00;2.00;;;;;;;;5099622;27;45476;-70
2022/04/22 11:50:45;;;;;;;;;1.00;1.00;;;;;;;;5100073;27;45256;-71
2022/04/22 11:53:14;;;;;;;;;2.00;1.00;;;;;;;;5099428;27;45340;-69
2022/04/22 11:55:42;;;;;;;;;2.00;2.00;;;;;;;;5099340;27;45466;-68
2022/04/22 11:58:08;;;;;;;;;2.33;2.33;;;;;;;;5099763;27;45542;-71
2022/04/22 12:06:05;;;;;;;;;1.67;1.67;;;;;;;;5099903;27;45421;-72
2022/04/22 12:08:30;;;;;;;;;3.00;3.00;;;;;;;;5099848;27;46043;-71
2022/04/22 12:10:56;;;;;;;;;3.00;2.33;;;;;;;;5099656;27;45237;-72
2022/04/22 12:13:24;;;;;;;;;3.00;3.00;;;;;;;;5099429;27;46080;-69
2022/04/22 12:15:49;;;;;;;;;5.67;3.33;;;;;;;;5099481;27;45276;-69
2022/04/22 12:18:28;;;;;;;;;4.67;4.00;;;;;;;;5099732;27;45535;-67
2022/04/22 12:20:53;;;;;;;;;1.67;1.00;;;;;;;;5099827;27;45562;-67
2022/04/22 12:23:19;;;;;;;;;2.00;2.00;;;;;;;;5099038;27;45479;-67
2022/04/22 12:25:55;;;;;;;;;3.33;3.33;;;;;;;;5099236;27;45517;-72
2022/04/22 12:28:21;;;;;;;;;4.00;4.00;;;;;;;;5099426;27;45499;-67
2022/04/22 12:30:46;;;;;;;;;2.00;2.00;;;;;;;;5099513;27;45321;-71
2022/04/22 12:33:23;;;;;;;;;3.00;3.00;;;;;;;;5099327;27;45576;-71
2022/04/22 12:35:49;;;;;;;;;3.33;3.00;;;;;;;;5099261;27;45429;-67
2022/04/22 12:38:15;;;;;;;;;2.00;2.00;;;;;;;;5099067;27;45487;-67
2022/04/22 12:40:47;;;;;;;;;2.33;2.00;;;;;;;;5099562;27;45343;-69
2022/04/22 12:43:43;;;;;;;;;5.00;4.00;;;;;;;;5098835;27;46211;-67
2022/04/22 12:52:12;;;;;;;;;3.67;3.00;;;;;;;;5099299;27;45172;-67
2022/04/22 12:54:38;;;;;;;;;3.67;3.00;;;;;;;;5097844;27;45495;-68
2022/04/22 12:57:07;;;;;;;;;1.33;1.00;;;;;;;;5098683;27;45503;-72
2022/04/22 12:59:42;;;;;;;;;2.00;1.33;;;;;;;;5099207;27;45303;-67
2022/04/22 13:02:09;;;;;;;;;2.00;2.00;;;;;;;;5099400;27;45330;-68
2022/04/22 13:04:48;;;;;;;;;3.00;2.00;;;;;;;;5098640;27;46642;-67
2022/04/22 13:07:13;;;;;;;;;2.67;2.33;;;;;;;;5098784;27;45490;-67
2022/04/22 13:09:38;;;;;;;;;2.00;1.67;;;;;;;;5099052;27;45562;-67
2022/04/22 13:12:04;;;;;;;;;2.00;2.00;;;;;;;;5098772;27;45519;-68
2022/04/22 13:14:29;;;;;;;;;2.67;2.33;;;;;;;;5098144;27;45854;-68
2022/04/22 13:16:55;;;;;;;;;2.00;2.00;;;;;;;;5098310;27;45347;-67
2022/04/22 13:19:20;;;;;;;;;4.33;3.67;;;;;;;;5098689;27;45210;-67
2022/04/22 13:21:45;;;;;;;;;5.33;3.33;;;;;;;;5098752;27;45468;-68
2022/04/22 13:24:11;;;;;;;;;7.00;5.00;;;;;;;;5098442;27;46118;-68
2022/04/22 13:26:37;;;;;;;;;5.00;3.00;;;;;;;;5098555;27;45337;-67
2022/04/22 13:29:04;;;;;;;;;6.00;5.00;;;;;;;;5098720;27;45366;-67
2022/04/22 13:31:29;;;;;;;;;3.00;3.00;;;;;;;;5098292;27;45506;-67
2022/04/22 13:33:55;;;;;;;;;2.33;2.33;;;;;;;;5097984;27;45950;-68
2022/04/22 13:36:20;;;;;;;;;4.00;4.00;;;;;;;;5096443;27;45301;-68
2022/04/22 13:38:48;;;;;;;;;2.33;2.33;;;;;;;;5098357;27;45514;-67
2022/04/22 13:41:14;;;;;;;;;3.33;3.33;;;;;;;;5098879;27;45234;-68
2022/04/22 13:43:39;;;;;;;;;3.33;3.33;;;;;;;;5098328;27;45311;-68
2022/04/22 13:54:17;;;;;;;;;5.67;4.00;;;;;;;;5097473;27;45414;-70
2022/04/22 13:56:42;;;;;;;;;16.67;9.33;;;;;;;;5098203;27;45265;-67
2022/04/22 13:59:07;;;;;;;;;3.67;3.67;;;;;;;;5097908;27;45326;-67
2022/04/22 14:01:33;;;;;;;;;2.67;2.67;;;;;;;;5097887;27;45393;-70
2022/04/22 14:03:58;;;;;;;;;2.67;2.67;;;;;;;;5097282;27;45503;-67
2022/04/22 14:06:24;;;;;;;;;4.00;4.00;;;;;;;;5097431;27;45472;-71
2022/04/22 14:08:49;;;;;;;;;2.67;2.67;;;;;;;;5097594;27;45405;-67
2022/04/22 14:11:15;;;;;;;;;2.67;2.67;;;;;;;;5097977;27;45144;-71
2022/04/22 14:13:41;;;;;;;;;2.67;2.67;;;;;;;;5097090;27;45371;-71
2022/04/22 14:16:06;;;;;;;;;6.33;4.33;;;;;;;;5097526;27;45768;-70
2022/04/22 14:18:33;;;;;;;;;9.67;5.67;;;;;;;;5097571;27;45524;-69
2022/04/22 14:20:59;;;;;;;;;3.00;3.00;;;;;;;;5097595;27;45446;-70
2022/04/22 14:23:24;;;;;;;;;3.67;2.67;;;;;;;;5096940;27;45488;-70
2022/04/22 14:25:49;;;;;;;;;4.00;3.00;;;;;;;;5097328;27;45456;-70
2022/04/22 14:28:15;;;;;;;;;4.00;3.00;;;;;;;;5097789;27;45265;-68
2022/04/22 14:30:41;;;;;;;;;1.67;1.33;;;;;;;;5097402;27;45536;-67
2022/04/22 14:33:06;;;;;;;;;4.00;3.00;;;;;;;;5096761;27;46183;-68
2022/04/22 14:35:31;;;;;;;;;7.33;4.00;;;;;;;;5096835;27;45349;-69
2022/04/22 14:37:58;;;;;;;;;3.00;3.00;;;;;;;;5097445;27;45443;-68
2022/04/22 14:40:23;;;;;;;;;2.00;2.00;;;;;;;;5097117;27;45253;-71
2022/04/22 14:42:50;;;;;;;;;3.00;3.00;;;;;;;;5096883;27;46045;-73
2022/04/22 14:45:16;;;;;;;;;7.33;7.33;;;;;;;;5097231;27;45390;-71
2022/04/22 14:47:41;;;;;;;;;2.67;2.00;;;;;;;;5096935;27;45500;-72
2022/04/22 14:50:08;;;;;;;;;3.00;2.33;;;;;;;;5097185;27;45443;-70
2022/04/22 14:52:34;;;;;;;;;1.00;1.00;;;;;;;;5096822;27;46395;-73
2022/04/22 14:54:59;;;;;;;;;2.00;2.00;;;;;;;;5097217;27;45361;-72
2022/04/22 14:57:25;;;;;;;;;2.00;2.00;;;;;;;;5097262;27;45498;-71
2022/04/22 14:59:50;;;;;;;;;5.00;4.00;;;;;;;;5097343;27;45494;-72
2022/04/22 15:02:16;;;;;;;;;2.33;2.33;;;;;;;;5096933;27;45337;-73
2022/04/22 15:04:41;;;;;;;;;3.00;2.00;;;;;;;;5097013;27;45392;-74
2022/04/22 15:07:06;;;;;;;;;5.00;3.00;;;;;;;;5097052;27;45455;-72
2022/04/22 15:09:32;;;;;;;;;2.00;2.00;;;;;;;;5097382;27;45335;-67
2022/04/22 15:11:57;;;;;;;;;2.00;2.00;;;;;;;;5096647;27;45473;-68
2022/04/22 15:14:22;;;;;;;;;2.00;2.00;;;;;;;;5096323;27;45833;-67
2022/04/22 15:16:48;;;;;;;;;3.00;3.00;;;;;;;;5096640;27;45425;-67
2022/04/22 15:24:41;;;;;;;;;3.00;3.00;;;;;;;;5100191;27;45504;-67
2022/04/22 15:27:07;;;;;;;;;4.00;3.00;;;;;;;;5100273;27;45360;-67
2022/04/22 15:29:32;;;;;;;;;5.00;3.67;;;;;;;;5100349;27;45243;-67
2022/04/22 15:31:58;;;;;;;;;5.67;4.00;;;;;;;;5099884;27;45674;-66
2022/04/22 15:34:23;;;;;;;;;4.00;4.00;;;;;;;;5099508;27;45502;-67
2022/04/22 15:36:49;;;;;;;;;2.33;2.33;;;;;;;;5099863;27;45434;-67
2022/04/22 15:39:14;;;;;;;;;5.00;4.00;;;;;;;;5099509;27;45210;-67
2022/04/22 15:41:41;;;;;;;;;2.33;2.33;;;;;;;;5098856;27;45377;-67
2022/04/22 15:44:06;;;;;;;;;4.67;4.00;;;;;;;;5099151;27;45445;-67
2022/04/22 15:46:32;;;;;;;;;3.00;2.33;;;;;;;;5098887;27;45922;-68
2022/04/22 15:48:57;;;;;;;;;3.00;3.00;;;;;;;;5099479;27;45553;-67